Time;durP1;ratioP1;P1;durP2;ratioP2;P2;SDS_P1;SDS_P2;PMS_P1;PMS_P2;Temp;Humidity;BMP_temperature;BMP_pressure;BME280_temperature;BME280_humidity;BME280_pressure;Samples;Min_cycle;Max_cycle;Signal;HPM_P1;HPM_P2
2022/07/24 00:00:56;;;;;;;6.00;5.40;;;29.10;42.20;;;;;;5087921;28;45434;-73
2022/07/24 00:03:23;;;;;;;5.35;4.80;;;29.10;42.20;;;;;;5087535;28;46352;-73
2022/07/24 00:05:49;;;;;;;5.10;4.70;;;29.00;42.10;;;;;;5087453;28;45216;-73
2022/07/24 00:08:16;;;;;;;5.72;5.13;;;29.00;42.20;;;;;;5087013;28;45231;-71
2022/07/24 00:10:43;;;;;;;5.80;5.30;;;29.00;42.20;;;;;;5087309;28;45358;-72
2022/07/24 00:13:10;;;;;;;6.07;5.57;;;29.00;42.20;;;;;;5087306;28;45270;-72
2022/07/24 00:15:38;;;;;;;5.70;5.10;;;28.90;42.20;;;;;;5087403;28;45233;-73
2022/07/24 00:18:05;;;;;;;5.78;5.28;;;28.90;42.80;;;;;;5087483;28;45131;-72
2022/07/24 00:20:32;;;;;;;5.50;5.05;;;28.90;42.20;;;;;;5087451;28;45396;-73
2022/07/24 00:22:58;;;;;;;5.45;4.95;;;28.90;42.20;;;;;;5087201;28;46472;-73
2022/07/24 00:25:25;;;;;;;5.82;5.13;;;28.90;42.20;;;;;;5087415;28;45266;-73
2022/07/24 00:27:52;;;;;;;5.93;5.32;;;28.90;42.40;;;;;;5087438;28;45341;-73
2022/07/24 00:30:19;;;;;;;5.75;5.28;;;28.80;42.20;;;;;;5087780;28;45123;-72
2022/07/24 00:32:47;;;;;;;5.15;4.75;;;28.80;42.20;;;;;;5087094;28;46412;-73
2022/07/24 00:35:14;;;;;;;5.60;5.10;;;28.80;42.20;;;;;;5087097;28;45289;-73
2022/07/24 00:37:40;;;;;;;5.57;5.07;;;28.80;42.10;;;;;;5086955;28;45301;-72
2022/07/24 00:40:08;;;;;;;5.95;5.35;;;28.80;42.20;;;;;;5087185;28;45170;-73
2022/07/24 00:42:35;;;;;;;6.72;4.68;;;28.80;42.20;;;;;;5087057;28;45214;-72
2022/07/24 00:45:02;;;;;;;5.75;5.25;;;28.80;42.20;;;;;;5086989;28;45134;-73
2022/07/24 00:47:28;;;;;;;5.10;4.70;;;28.70;42.20;;;;;;5087002;28;45383;-73
2022/07/24 00:49:57;;;;;;;5.10;4.63;;;28.70;42.30;;;;;;5087219;28;45331;-72
2022/07/24 00:52:23;;;;;;;5.25;4.75;;;28.70;42.30;;;;;;5086748;28;46480;-71
2022/07/24 00:54:50;;;;;;;5.60;4.85;;;28.70;42.20;;;;;;5086164;28;45202;-72
2022/07/24 00:57:17;;;;;;;5.18;4.78;;;28.70;42.30;;;;;;5086900;28;45231;-72
2022/07/24 00:59:44;;;;;;;5.40;4.95;;;28.70;42.30;;;;;;5086857;28;45375;-72
2022/07/24 01:02:11;;;;;;;5.47;5.05;;;28.60;42.20;;;;;;5086617;28;45261;-72
2022/07/24 01:04:39;;;;;;;5.25;4.82;;;28.60;42.30;;;;;;5086658;28;45189;-73
2022/07/24 01:07:07;;;;;;;5.03;4.63;;;28.60;42.30;;;;;;5089538;27;45194;-73
2022/07/24 01:09:34;;;;;;;5.05;4.65;;;28.60;42.40;;;;;;5090796;28;45289;-73
2022/07/24 01:12:00;;;;;;;4.97;4.55;;;28.60;42.40;;;;;;5090133;28;46416;-72
2022/07/24 01:14:27;;;;;;;4.97;4.57;;;28.60;42.40;;;;;;5090332;28;45254;-73
2022/07/24 01:16:54;;;;;;;5.30;4.80;;;28.60;42.40;;;;;;5090429;28;45222;-73
2022/07/24 01:19:24;;;;;;;5.07;4.68;;;28.50;42.40;;;;;;5090339;28;45185;-73
2022/07/24 01:21:53;;;;;;;5.80;5.07;;;28.50;42.30;;;;;;5090091;28;45340;-73
2022/07/24 01:24:20;;;;;;;5.10;4.70;;;28.50;42.50;;;;;;5090404;28;45169;-73
2022/07/24 01:26:47;;;;;;;5.82;4.75;;;28.50;42.50;;;;;;5090150;28;45131;-72
2022/07/24 01:29:14;;;;;;;5.10;4.70;;;28.50;43.10;;;;;;5090421;28;45593;-72
2022/07/24 01:31:41;;;;;;;5.00;4.60;;;28.50;42.50;;;;;;5090041;28;45322;-72
2022/07/24 01:34:07;;;;;;;5.38;4.50;;;28.50;42.50;;;;;;5090212;28;45182;-73
2022/07/24 01:36:34;;;;;;;5.10;4.70;;;28.40;42.50;;;;;;5089848;28;45169;-72
2022/07/24 01:39:02;;;;;;;4.63;4.22;;;28.40;42.40;;;;;;5090093;28;45464;-71
2022/07/24 01:41:29;;;;;;;5.30;4.80;;;28.40;42.40;;;;;;5089277;28;47347;-72
2022/07/24 01:43:56;;;;;;;5.35;4.60;;;28.40;42.50;;;;;;5090259;28;45463;-72
2022/07/24 01:46:23;;;;;;;5.45;4.90;;;28.40;42.50;;;;;;5089949;28;45191;-72
2022/07/24 01:48:50;;;;;;;5.00;4.57;;;28.40;42.50;;;;;;5090074;28;45119;-72
2022/07/24 01:51:16;;;;;;;6.47;5.30;;;28.30;42.50;;;;;;5089454;28;46341;-72
2022/07/24 01:53:43;;;;;;;5.25;4.75;;;28.30;42.40;;;;;;5089545;28;45257;-73
2022/07/24 01:56:11;;;;;;;5.13;4.72;;;28.30;42.50;;;;;;5089772;28;45249;-72
2022/07/24 01:58:39;;;;;;;5.05;4.60;;;28.30;42.50;;;;;;5089815;28;45250;-72
2022/07/24 02:01:06;;;;;;;5.43;4.80;;;28.30;42.50;;;;;;5089041;28;45516;-73
2022/07/24 02:03:32;;;;;;;5.40;4.90;;;28.30;42.60;;;;;;5089346;28;45203;-72
2022/07/24 02:05:59;;;;;;;5.50;5.00;;;28.30;42.60;;;;;;5089854;28;45332;-73
2022/07/24 02:08:26;;;;;;;4.82;4.43;;;28.20;42.60;;;;;;5089935;28;45400;-73
2022/07/24 02:10:54;;;;;;;5.82;5.07;;;28.30;42.60;;;;;;5089314;28;47265;-73
2022/07/24 02:13:22;;;;;;;4.90;4.40;;;28.30;42.60;;;;;;5089488;28;45222;-73
2022/07/24 02:15:48;;;;;;;5.22;4.72;;;28.20;42.50;;;;;;5089418;28;45261;-73
2022/07/24 02:18:15;;;;;;;5.40;4.90;;;28.20;42.50;;;;;;5088380;28;45254;-73
2022/07/24 02:20:42;;;;;;;5.18;4.68;;;28.20;42.50;;;;;;5089025;28;45259;-73
2022/07/24 02:23:09;;;;;;;5.40;4.90;;;28.20;42.60;;;;;;5089197;28;45189;-72
2022/07/24 02:25:35;;;;;;;4.88;4.47;;;28.20;42.40;;;;;;5088915;28;45207;-70
2022/07/24 02:28:02;;;;;;;4.90;4.50;;;28.20;42.50;;;;;;5088797;28;45395;-72
2022/07/24 02:30:30;;;;;;;5.28;4.85;;;28.20;42.60;;;;;;5088949;28;45617;-73
2022/07/24 02:32:57;;;;;;;5.03;4.63;;;28.20;42.50;;;;;;5088947;28;45387;-72
2022/07/24 02:35:24;;;;;;;4.88;4.38;;;28.10;42.40;;;;;;5089357;28;45245;-72
2022/07/24 02:37:51;;;;;;;4.55;4.22;;;28.10;42.50;;;;;;5068884;28;45268;-72
2022/07/24 02:40:18;;;;;;;4.78;4.38;;;28.10;42.50;;;;;;5068461;28;46408;-72
2022/07/24 02:42:44;;;;;;;5.20;4.70;;;28.10;42.50;;;;;;5068471;28;45400;-72
2022/07/24 02:45:11;;;;;;;5.22;4.72;;;28.10;42.50;;;;;;5068676;28;45375;-73
2022/07/24 02:47:48;;;;;;;4.70;4.30;;;28.00;42.50;;;;;;5068743;28;45253;-73
2022/07/24 02:50:15;;;;;;;4.82;4.43;;;28.00;43.20;;;;;;5068420;28;45204;-73
2022/07/24 02:52:42;;;;;;;5.45;4.95;;;28.00;42.60;;;;;;5068321;28;45139;-72
2022/07/24 02:55:09;;;;;;;5.63;4.85;;;28.00;42.50;;;;;;5068594;28;45180;-73
2022/07/24 02:57:36;;;;;;;4.50;4.10;;;28.00;42.50;;;;;;5068699;28;45249;-73
2022/07/24 03:00:03;;;;;;;4.93;4.53;;;28.00;42.50;;;;;;5068184;28;46456;-73
2022/07/24 03:02:30;;;;;;;5.85;5.05;;;27.90;42.50;;;;;;5068442;28;45178;-73
2022/07/24 03:04:58;;;;;;;5.25;4.85;;;27.90;42.50;;;;;;5068397;28;45200;-73
2022/07/24 03:07:25;;;;;;;5.05;4.60;;;27.90;42.60;;;;;;5068481;28;45471;-73
2022/07/24 03:09:52;;;;;;;4.60;4.30;;;27.90;42.60;;;;;;5068005;28;45316;-72
2022/07/24 03:12:18;;;;;;;5.07;4.68;;;27.90;42.60;;;;;;5068068;28;45325;-74
2022/07/24 03:14:45;;;;;;;4.60;4.18;;;27.80;42.60;;;;;;5067497;28;45151;-72
2022/07/24 03:17:12;;;;;;;4.57;4.18;;;27.80;42.60;;;;;;5068338;28;45321;-73
2022/07/24 03:19:39;;;;;;;5.07;4.65;;;27.80;42.70;;;;;;5067810;28;46392;-72
2022/07/24 03:22:07;;;;;;;4.97;4.57;;;27.80;42.70;;;;;;5067909;28;45352;-73
2022/07/24 03:24:34;;;;;;;4.72;4.40;;;27.80;42.60;;;;;;5068078;28;45248;-73
2022/07/24 03:27:01;;;;;;;4.57;4.22;;;27.80;42.80;;;;;;5068206;28;45171;-73
2022/07/24 03:29:27;;;;;;;4.75;4.35;;;27.70;42.70;;;;;;5074862;28;46400;-73
2022/07/24 03:31:54;;;;;;;4.80;4.40;;;27.70;42.70;;;;;;5088235;28;45338;-72
2022/07/24 03:34:21;;;;;;;4.78;4.30;;;27.70;42.70;;;;;;5088337;28;45214;-73
2022/07/24 03:36:48;;;;;;;4.88;4.38;;;27.70;42.80;;;;;;5088241;28;45418;-73
2022/07/24 03:39:16;;;;;;;4.75;4.35;;;27.60;42.70;;;;;;5087711;28;46401;-72
2022/07/24 03:41:43;;;;;;;4.72;4.40;;;27.70;42.90;;;;;;5087896;28;45219;-72
2022/07/24 03:44:09;;;;;;;4.63;4.22;;;27.60;42.70;;;;;;5088075;28;45288;-73
2022/07/24 03:46:36;;;;;;;4.65;4.22;;;27.70;42.80;;;;;;5088407;28;45284;-72
2022/07/24 03:49:03;;;;;;;4.88;4.47;;;27.60;42.80;;;;;;5087950;28;46330;-72
2022/07/24 03:51:30;;;;;;;4.97;4.45;;;27.60;42.80;;;;;;5087973;28;45229;-72
2022/07/24 03:53:57;;;;;;;5.57;5.05;;;27.60;42.80;;;;;;5087921;28;45127;-72
2022/07/24 03:56:25;;;;;;;4.65;4.25;;;27.60;42.80;;;;;;5088063;28;45130;-72
2022/07/24 03:58:51;;;;;;;4.90;4.50;;;27.60;42.70;;;;;;5087350;28;45325;-70
2022/07/24 04:01:19;;;;;;;4.50;4.20;;;27.60;42.70;;;;;;5086913;28;45287;-73
2022/07/24 04:03:45;;;;;;;4.72;4.40;;;27.60;42.80;;;;;;5087840;28;45197;-72
2022/07/24 04:06:12;;;;;;;4.72;4.32;;;27.50;42.70;;;;;;5088042;28;45214;-73
2022/07/24 04:08:39;;;;;;;4.85;4.45;;;27.50;42.80;;;;;;5087423;28;45159;-72
2022/07/24 04:11:07;;;;;;;4.90;4.50;;;27.50;42.70;;;;;;5087588;28;45297;-72
2022/07/24 04:13:35;;;;;;;4.50;4.13;;;27.50;42.80;;;;;;5087861;28;45268;-73
2022/07/24 04:16:02;;;;;;;4.60;4.22;;;27.50;42.90;;;;;;5087875;28;45172;-73
2022/07/24 04:18:29;;;;;;;4.82;4.43;;;27.50;42.70;;;;;;5087273;28;46388;-72
2022/07/24 04:20:56;;;;;;;4.80;4.40;;;27.50;42.80;;;;;;5087309;28;45325;-73
2022/07/24 04:23:22;;;;;;;4.72;4.32;;;27.40;42.80;;;;;;5087446;28;45274;-72
2022/07/24 04:25:49;;;;;;;4.85;4.45;;;27.40;42.80;;;;;;5087534;28;45428;-72
2022/07/24 04:28:16;;;;;;;4.72;4.30;;;27.40;42.80;;;;;;5087190;28;46314;-72
2022/07/24 04:30:45;;;;;;;4.28;3.97;;;27.40;42.80;;;;;;5087246;28;45221;-73
2022/07/24 04:33:11;;;;;;;4.90;4.40;;;27.40;42.80;;;;;;5087420;28;45249;-73
2022/07/24 04:35:38;;;;;;;4.38;4.07;;;27.40;42.80;;;;;;5087594;28;45419;-72
2022/07/24 04:38:05;;;;;;;4.95;4.45;;;27.40;42.80;;;;;;5086715;28;46415;-72
2022/07/24 04:40:32;;;;;;;4.57;4.10;;;27.40;42.90;;;;;;5086242;28;45138;-72
2022/07/24 04:42:58;;;;;;;4.72;4.32;;;27.40;42.80;;;;;;5087171;28;45143;-72
2022/07/24 04:45:25;;;;;;;5.43;4.93;;;27.40;42.90;;;;;;5086617;28;45324;-72
2022/07/24 04:47:53;;;;;;;4.72;4.32;;;27.40;42.90;;;;;;5086865;28;45339;-72
2022/07/24 04:50:20;;;;;;;4.70;4.30;;;27.40;42.80;;;;;;5087028;28;45327;-72
2022/07/24 04:52:47;;;;;;;5.00;4.60;;;27.30;42.90;;;;;;5087088;28;45246;-72
2022/07/24 04:55:14;;;;;;;4.65;4.25;;;27.30;42.90;;;;;;5087261;28;45133;-72
2022/07/24 04:57:40;;;;;;;4.25;3.95;;;27.30;43.00;;;;;;5086625;28;46404;-73
2022/07/24 05:00:09;;;;;;;4.47;4.15;;;27.30;42.90;;;;;;5086766;28;45295;-72
2022/07/24 05:02:36;;;;;;;5.60;4.60;;;27.30;42.90;;;;;;5086812;28;45189;-72
2022/07/24 05:05:04;;;;;;;4.45;4.15;;;27.30;42.90;;;;;;5087061;28;45447;-73
2022/07/24 05:07:31;;;;;;;4.70;4.40;;;27.20;42.90;;;;;;5086735;28;46662;-73
2022/07/24 05:09:58;;;;;;;6.35;4.03;;;27.20;43.60;;;;;;5086767;28;45302;-73
2022/07/24 05:12:25;;;;;;;4.95;4.55;;;27.20;43.00;;;;;;5086829;28;45249;-72
2022/07/24 05:14:52;;;;;;;4.30;4.00;;;27.20;43.00;;;;;;5087003;28;45249;-72
2022/07/24 05:17:18;;;;;;;4.72;4.32;;;27.20;43.00;;;;;;5086512;28;46365;-73
2022/07/24 05:19:45;;;;;;;5.18;4.47;;;27.20;43.00;;;;;;5086739;28;45247;-73
2022/07/24 05:22:13;;;;;;;4.65;4.25;;;27.20;43.10;;;;;;5086499;28;45276;-72
2022/07/24 05:24:40;;;;;;;4.55;4.15;;;27.20;43.00;;;;;;5086970;28;45424;-72
2022/07/24 05:27:07;;;;;;;5.10;4.60;;;27.20;43.10;;;;;;5086436;28;46318;-72
2022/07/24 05:29:34;;;;;;;4.68;4.28;;;27.10;43.10;;;;;;5086389;28;45258;-72
2022/07/24 05:32:00;;;;;;;4.45;4.15;;;27.20;43.20;;;;;;5085862;28;45195;-72
2022/07/24 05:34:27;;;;;;;5.10;4.70;;;27.20;43.20;;;;;;5086720;28;45451;-72
2022/07/24 05:36:54;;;;;;;4.93;4.50;;;27.20;43.10;;;;;;5086186;28;45482;-72
2022/07/24 05:39:22;;;;;;;4.18;3.88;;;27.20;43.10;;;;;;5085886;28;45250;-72
2022/07/24 05:41:49;;;;;;;4.60;4.20;;;27.20;43.10;;;;;;5086319;28;45193;-72
2022/07/24 05:44:16;;;;;;;4.43;4.05;;;27.20;43.10;;;;;;5086651;28;45387;-72
2022/07/24 05:46:43;;;;;;;5.15;4.65;;;27.20;43.10;;;;;;5086048;28;45453;-73
2022/07/24 05:49:09;;;;;;;5.00;4.60;;;27.10;43.10;;;;;;5086209;28;45257;-72
2022/07/24 05:51:36;;;;;;;4.57;4.20;;;27.20;43.10;;;;;;5086453;28;45397;-73
2022/07/24 05:54:03;;;;;;;4.97;4.53;;;27.10;43.10;;;;;;5089943;28;45119;-73
2022/07/24 05:56:31;;;;;;;4.78;4.38;;;27.10;43.10;;;;;;5089245;28;45458;-72
2022/07/24 05:58:58;;;;;;;4.80;4.40;;;27.10;43.10;;;;;;5089369;28;45313;-73
2022/07/24 06:01:25;;;;;;;4.55;4.15;;;27.10;43.10;;;;;;5089638;28;45268;-72
2022/07/24 06:03:52;;;;;;;4.88;4.47;;;27.10;43.10;;;;;;5089642;28;45314;-73
2022/07/24 06:06:19;;;;;;;4.80;4.25;;;27.10;43.10;;;;;;5089282;28;46416;-72
2022/07/24 06:08:46;;;;;;;4.45;4.05;;;27.10;43.20;;;;;;5089432;28;45202;-72
2022/07/24 06:11:13;;;;;;;4.80;4.50;;;27.10;43.10;;;;;;5089628;28;45266;-72
2022/07/24 06:13:41;;;;;;;3.95;3.65;;;27.10;43.20;;;;;;5089464;28;45243;-72
2022/07/24 06:16:08;;;;;;;4.70;4.15;;;27.10;43.20;;;;;;5088478;28;45305;-72
2022/07/24 06:18:34;;;;;;;4.82;4.32;;;27.10;43.20;;;;;;5088954;28;45189;-72
2022/07/24 06:21:01;;;;;;;4.75;4.38;;;27.10;43.70;;;;;;5089222;28;45135;-72
2022/07/24 06:23:28;;;;;;;4.55;4.15;;;27.10;43.10;;;;;;5089488;28;45384;-73
2022/07/24 06:25:55;;;;;;;4.68;4.22;;;27.10;43.10;;;;;;5088935;28;45305;-72
2022/07/24 06:28:22;;;;;;;4.30;4.00;;;27.10;43.10;;;;;;5088981;28;45240;-73
2022/07/24 06:30:50;;;;;;;4.40;4.00;;;27.10;43.10;;;;;;5088953;28;45254;-73
2022/07/24 06:33:17;;;;;;;4.80;4.40;;;27.10;43.10;;;;;;5089231;28;45181;-73
2022/07/24 06:35:43;;;;;;;4.47;4.18;;;27.20;43.00;;;;;;5088610;28;46407;-73
2022/07/24 06:38:11;;;;;;;4.57;4.18;;;27.20;43.00;;;;;;5088668;28;45324;-72
2022/07/24 06:40:38;;;;;;;4.35;3.95;;;27.20;43.00;;;;;;5089055;28;45265;-72
2022/07/24 06:43:05;;;;;;;4.38;4.00;;;27.20;42.90;;;;;;5089052;28;45441;-73
2022/07/24 06:45:32;;;;;;;4.88;4.50;;;27.30;43.00;;;;;;5088632;28;47295;-73
2022/07/24 06:48:00;;;;;;;4.80;4.40;;;27.30;43.00;;;;;;5088700;28;45304;-72
2022/07/24 06:50:27;;;;;;;4.32;4.03;;;27.30;42.90;;;;;;5088645;28;45359;-72
2022/07/24 06:52:54;;;;;;;4.10;3.80;;;27.40;42.80;;;;;;5088865;28;45123;-73
2022/07/24 06:55:21;;;;;;;4.72;4.32;;;27.40;42.90;;;;;;5088598;28;46358;-72
2022/07/24 06:57:48;;;;;;;4.78;4.40;;;27.40;43.50;;;;;;5088562;28;45190;-73
2022/07/24 07:00:15;;;;;;;4.60;4.20;;;27.40;42.80;;;;;;5088680;28;45414;-72
2022/07/24 07:02:42;;;;;;;4.68;4.28;;;27.40;42.80;;;;;;5088064;28;45368;-72
2022/07/24 07:05:10;;;;;;;4.30;4.00;;;27.40;42.90;;;;;;5087438;28;45355;-72
2022/07/24 07:07:37;;;;;;;4.25;3.95;;;27.40;42.80;;;;;;5088038;28;45201;-72
2022/07/24 07:10:05;;;;;;;4.07;3.78;;;27.40;42.80;;;;;;5088693;28;45190;-72
2022/07/24 07:12:31;;;;;;;4.30;4.00;;;27.40;42.70;;;;;;5088321;28;45439;-72
2022/07/24 07:14:59;;;;;;;3.92;3.63;;;27.40;42.70;;;;;;5088262;28;46418;-72
2022/07/24 07:17:26;;;;;;;4.55;4.15;;;27.40;42.70;;;;;;5087915;28;45225;-72
2022/07/24 07:19:52;;;;;;;4.32;3.92;;;27.50;42.70;;;;;;5088476;28;45229;-72
2022/07/24 07:22:20;;;;;;;4.28;3.97;;;27.50;42.60;;;;;;5088405;28;45200;-72
2022/07/24 07:24:47;;;;;;;4.40;4.10;;;27.50;42.60;;;;;;5088211;28;46496;-72
2022/07/24 07:27:14;;;;;;;4.55;4.20;;;27.50;42.60;;;;;;5088054;28;45249;-72
2022/07/24 07:29:41;;;;;;;4.28;3.97;;;27.50;42.60;;;;;;5087848;28;45229;-72
2022/07/24 07:32:08;;;;;;;4.10;3.80;;;27.60;42.60;;;;;;5088263;28;45175;-72
2022/07/24 07:34:34;;;;;;;4.18;3.88;;;27.60;42.60;;;;;;5087713;28;46380;-72
2022/07/24 07:37:01;;;;;;;4.30;4.00;;;27.60;42.60;;;;;;5087872;28;45258;-72
2022/07/24 07:39:30;;;;;;;4.00;3.70;;;27.60;42.60;;;;;;5087619;28;45277;-72
2022/07/24 07:41:57;;;;;;;4.18;3.88;;;27.60;42.60;;;;;;5088036;28;45447;-72
2022/07/24 07:44:23;;;;;;;4.70;3.75;;;27.60;42.60;;;;;;5087639;28;45204;-72
2022/07/24 07:46:50;;;;;;;3.92;3.63;;;27.60;42.60;;;;;;5087634;28;45412;-72
2022/07/24 07:49:17;;;;;;;4.55;4.22;;;27.70;42.60;;;;;;5087507;28;45348;-72
2022/07/24 07:51:47;;;;;;;4.13;3.78;;;27.70;42.60;;;;;;5087859;28;45218;-72
2022/07/24 07:54:13;;;;;;;4.43;4.03;;;27.70;42.60;;;;;;5087307;28;46647;-72
2022/07/24 07:56:42;;;;;;;4.30;4.00;;;27.70;42.60;;;;;;5087745;28;45367;-72
2022/07/24 07:59:08;;;;;;;4.88;4.38;;;27.70;42.60;;;;;;5087663;28;45308;-72
2022/07/24 08:01:35;;;;;;;4.10;3.80;;;27.80;42.60;;;;;;5087813;28;45364;-72
2022/07/24 08:04:02;;;;;;;4.00;3.70;;;27.80;42.60;;;;;;5087445;28;45289;-72
2022/07/24 08:06:29;;;;;;;3.67;3.40;;;27.80;43.10;;;;;;5087400;28;45135;-72
2022/07/24 08:08:56;;;;;;;3.78;3.47;;;27.80;42.50;;;;;;5087563;28;45306;-72
2022/07/24 08:11:23;;;;;;;4.35;4.05;;;27.90;42.50;;;;;;5087703;28;45255;-72
2022/07/24 08:13:51;;;;;;;4.18;3.88;;;27.90;42.40;;;;;;5087199;28;46465;-72
2022/07/24 08:16:18;;;;;;;4.35;4.05;;;27.90;42.40;;;;;;5086541;27;45177;-73
2022/07/24 08:18:45;;;;;;;4.10;3.78;;;27.90;42.30;;;;;;5083720;28;45434;-74
2022/07/24 08:21:12;;;;;;;4.50;4.10;;;28.00;42.40;;;;;;5087520;28;45246;-73
2022/07/24 08:23:38;;;;;;;4.10;3.80;;;28.00;42.50;;;;;;5087244;28;46546;-72
2022/07/24 08:26:06;;;;;;;4.35;3.95;;;28.00;42.50;;;;;;5087079;28;45289;-73
2022/07/24 08:28:33;;;;;;;4.57;4.18;;;28.10;42.50;;;;;;5084491;28;45399;-72
2022/07/24 08:31:01;;;;;;;4.35;3.95;;;28.10;42.50;;;;;;5080204;28;45181;-72
2022/07/24 08:33:28;;;;;;;3.97;3.67;;;28.10;42.50;;;;;;5086186;28;45418;-72
2022/07/24 08:35:55;;;;;;;4.65;4.18;;;28.10;42.50;;;;;;5079655;28;45283;-73
2022/07/24 08:38:22;;;;;;;4.28;3.95;;;28.20;42.60;;;;;;5081519;28;45241;-72
2022/07/24 08:40:49;;;;;;;4.47;4.07;;;28.20;42.60;;;;;;5086126;28;45253;-72
2022/07/24 08:43:15;;;;;;;3.83;3.53;;;28.20;42.70;;;;;;5086304;28;46554;-72
2022/07/24 08:45:44;;;;;;;5.70;4.22;;;28.20;42.70;;;;;;5086024;28;45332;-72
2022/07/24 08:48:12;;;;;;;3.83;3.63;;;28.30;42.70;;;;;;5068416;28;45223;-72
2022/07/24 08:50:40;;;;;;;4.82;4.07;;;28.30;42.60;;;;;;5084882;28;45396;-72
2022/07/24 08:53:07;;;;;;;4.57;4.18;;;28.30;42.50;;;;;;5086346;28;46450;-73
2022/07/24 08:55:34;;;;;;;3.83;3.53;;;28.30;42.50;;;;;;5086109;28;45391;-72
2022/07/24 08:58:01;;;;;;;4.47;4.05;;;28.40;42.50;;;;;;5086425;28;45224;-72
2022/07/24 09:00:28;;;;;;;5.22;3.83;;;28.40;42.50;;;;;;5084634;28;45364;-73
2022/07/24 09:02:55;;;;;;;4.40;4.00;;;28.50;43.10;;;;;;5086263;28;45458;-72
2022/07/24 09:05:23;;;;;;;4.47;4.00;;;28.50;42.50;;;;;;5085980;28;45321;-72
2022/07/24 09:07:50;;;;;;;3.85;3.55;;;28.50;42.60;;;;;;5086149;28;45368;-72
2022/07/24 09:10:17;;;;;;;4.32;3.80;;;28.50;43.30;;;;;;5084527;28;45161;-73
2022/07/24 09:12:45;;;;;;;4.10;3.80;;;28.50;42.60;;;;;;5085721;28;45504;-73
2022/07/24 09:15:13;;;;;;;4.00;3.70;;;28.60;42.60;;;;;;5086160;28;45411;-72
2022/07/24 09:17:48;;;;;;;5.38;4.00;;;28.60;42.50;;;;;;5085708;28;45424;-71
2022/07/24 09:20:15;;;;;;;3.97;3.67;;;28.60;42.50;;;;;;5084077;28;45292;-72
2022/07/24 09:22:43;;;;;;;4.65;4.28;;;28.70;42.50;;;;;;5080177;28;46388;-72
2022/07/24 09:25:12;;;;;;;5.57;3.97;;;28.70;42.60;;;;;;5085549;28;45178;-71
2022/07/24 09:27:40;;;;;;;4.13;3.80;;;28.70;42.50;;;;;;5087887;27;45283;-72
2022/07/24 09:30:08;;;;;;;4.22;3.83;;;28.80;42.50;;;;;;5088074;28;45457;-73
2022/07/24 09:32:36;;;;;;;4.28;3.97;;;28.80;42.50;;;;;;5089310;28;46476;-72
2022/07/24 09:35:03;;;;;;;3.95;3.53;;;28.80;42.40;;;;;;5089547;27;45455;-72
2022/07/24 09:37:30;;;;;;;4.18;3.88;;;28.90;42.50;;;;;;5082596;27;45419;-73
2022/07/24 09:40:07;;;;;;;4.53;4.13;;;28.90;42.50;;;;;;5087356;27;45215;-73
2022/07/24 09:42:38;;;;;;;4.88;4.38;;;29.00;42.60;;;;;;5089013;28;46517;-73
2022/07/24 09:45:08;;;;;;;4.53;3.90;;;29.00;42.50;;;;;;5089141;28;45322;-72
2022/07/24 09:47:35;;;;;;;6.07;4.18;;;29.10;42.60;;;;;;5089228;28;45274;-72
2022/07/24 09:50:12;;;;;;;4.68;4.22;;;29.10;42.60;;;;;;5087510;28;45416;-73
2022/07/24 09:52:39;;;;;;;5.78;4.63;;;29.10;42.60;;;;;;5072307;28;46950;-73
2022/07/24 09:55:20;;;;;;;4.25;3.90;;;29.20;42.70;;;;;;5089299;28;45292;-73
2022/07/24 09:57:47;;;;;;;4.63;3.95;;;29.20;42.60;;;;;;5089174;28;45268;-73
2022/07/24 10:00:15;;;;;;;5.60;4.57;;;29.20;42.60;;;;;;5087477;28;45371;-72
2022/07/24 10:02:43;;;;;;;4.30;4.00;;;29.20;42.60;;;;;;5088854;28;45203;-73
2022/07/24 10:05:11;;;;;;;4.53;4.20;;;29.30;42.70;;;;;;5088852;28;45336;-73
2022/07/24 10:07:38;;;;;;;4.57;4.18;;;29.30;42.60;;;;;;5086228;28;45356;-73
2022/07/24 10:10:07;;;;;;;4.80;4.40;;;29.30;42.70;;;;;;5087366;28;45384;-73
2022/07/24 10:12:34;;;;;;;4.60;4.20;;;29.40;42.70;;;;;;5088751;28;45268;-72
2022/07/24 10:15:02;;;;;;;5.07;4.57;;;29.40;42.70;;;;;;5089047;28;45191;-72
2022/07/24 10:17:35;;;;;;;4.65;4.25;;;29.40;42.60;;;;;;5088708;28;45314;-71
2022/07/24 10:20:05;;;;;;;4.40;4.10;;;29.40;42.60;;;;;;5085510;28;45537;-72
2022/07/24 10:22:35;;;;;;;4.72;4.32;;;29.50;42.60;;;;;;5088431;28;47447;-71
2022/07/24 10:25:08;;;;;;;4.85;4.25;;;29.50;42.60;;;;;;5088813;28;45267;-71
2022/07/24 10:27:36;;;;;;;4.63;4.22;;;29.50;42.60;;;;;;5089587;28;45244;-73
2022/07/24 10:30:05;;;;;;;4.53;3.83;;;29.60;42.50;;;;;;5088291;28;45254;-72
2022/07/24 10:32:32;;;;;;;5.00;4.50;;;29.60;42.50;;;;;;5088489;28;46309;-72
2022/07/24 10:35:07;;;;;;;4.65;4.25;;;29.60;42.40;;;;;;5089102;28;45286;-72
2022/07/24 10:37:39;;;;;;;4.90;4.50;;;29.60;42.30;;;;;;5086265;28;45179;-72
2022/07/24 10:40:13;;;;;;;5.25;4.15;;;29.70;42.30;;;;;;5088353;28;45571;-72
2022/07/24 10:43:10;;;;;;;4.65;4.25;;;29.70;42.20;;;;;;5088623;28;46630;-72
2022/07/24 10:45:37;;;;;;;4.80;4.40;;;29.70;42.20;;;;;;5088264;28;45230;-72
2022/07/24 10:48:26;;;;;;;4.78;4.15;;;29.80;42.10;;;;;;5088653;28;45231;-72
2022/07/24 10:51:07;;;;;;;4.47;4.07;;;29.80;42.00;;;;;;5088780;28;45305;-72
2022/07/24 10:53:50;;;;;;;4.70;4.30;;;29.90;42.10;;;;;;5088364;28;46343;-72
2022/07/24 10:56:20;;;;;;;4.95;4.57;;;29.90;41.90;;;;;;5088421;28;45242;-72
2022/07/24 10:59:00;;;;;;;5.07;4.45;;;29.90;41.80;;;;;;5088597;28;45220;-72
2022/07/24 11:01:32;;;;;;;5.88;4.50;;;30.00;41.80;;;;;;5088637;28;45145;-72
2022/07/24 11:03:59;;;;;;;5.40;4.35;;;30.00;41.80;;;;;;5088154;28;45490;-72
2022/07/24 11:06:45;;;;;;;4.50;4.20;;;30.00;41.60;;;;;;5088252;28;45249;-71
2022/07/24 11:09:11;;;;;;;4.72;4.32;;;30.10;41.60;;;;;;5088443;28;45217;-72
2022/07/24 11:11:43;;;;;;;4.30;3.90;;;30.20;41.60;;;;;;5088648;28;45308;-72
2022/07/24 11:14:11;;;;;;;4.85;4.45;;;30.20;41.50;;;;;;5087869;28;46335;-72
2022/07/24 11:16:38;;;;;;;4.40;4.00;;;30.30;41.50;;;;;;5087691;28;45209;-72
2022/07/24 11:19:27;;;;;;;4.88;4.32;;;30.30;41.40;;;;;;5088298;28;45232;-72
2022/07/24 11:22:11;;;;;;;5.45;4.32;;;30.40;41.30;;;;;;5084814;28;45304;-73
2022/07/24 11:24:42;;;;;;;4.45;4.05;;;30.40;41.20;;;;;;5088310;28;45448;-72
2022/07/24 11:27:16;;;;;;;5.00;3.75;;;30.50;41.20;;;;;;5088200;28;45168;-72
2022/07/24 11:29:42;;;;;;;4.28;3.78;;;30.50;41.00;;;;;;5087906;28;45273;-72
2022/07/24 11:32:13;;;;;;;5.00;4.47;;;30.60;41.00;;;;;;5087785;28;45401;-72
2022/07/24 11:34:40;;;;;;;4.10;3.80;;;30.60;41.50;;;;;;5087803;28;46661;-73
2022/07/24 11:37:08;;;;;;;4.30;4.00;;;30.70;40.80;;;;;;5086985;28;45372;-73
2022/07/24 11:39:36;;;;;;;4.20;3.90;;;30.80;40.90;;;;;;5088045;28;45268;-72
2022/07/24 11:42:04;;;;;;;5.45;4.28;;;30.80;40.70;;;;;;5088121;28;45404;-72
2022/07/24 11:44:33;;;;;;;4.40;4.10;;;30.80;40.60;;;;;;5087815;28;46676;-73
2022/07/24 11:47:00;;;;;;;4.72;4.32;;;30.90;41.10;;;;;;5087670;28;45218;-72
2022/07/24 11:49:27;;;;;;;4.82;4.05;;;30.90;40.60;;;;;;5087598;28;45396;-73
2022/07/24 11:51:55;;;;;;;4.80;4.20;;;31.00;40.50;;;;;;5087943;28;45221;-72
2022/07/24 11:54:23;;;;;;;4.35;3.90;;;31.10;40.40;;;;;;5087513;28;46365;-73
2022/07/24 11:56:50;;;;;;;3.88;3.58;;;31.20;40.30;;;;;;5087637;28;45232;-73
2022/07/24 11:59:24;;;;;;;4.10;3.80;;;31.20;40.30;;;;;;5087651;28;45193;-73
2022/07/24 12:01:54;;;;;;;4.40;4.05;;;31.30;40.20;;;;;;5088018;28;45258;-73
2022/07/24 12:04:21;;;;;;;4.90;4.50;;;31.30;40.10;;;;;;5087215;28;45222;-73
2022/07/24 12:06:48;;;;;;;4.45;4.05;;;31.40;40.10;;;;;;5087535;28;45269;-73
2022/07/24 12:09:15;;;;;;;4.43;4.03;;;31.40;40.00;;;;;;5087577;28;45138;-73
2022/07/24 12:11:42;;;;;;;4.25;3.95;;;31.40;39.90;;;;;;5087582;28;45207;-72
2022/07/24 12:14:14;;;;;;;4.43;4.10;;;31.50;39.90;;;;;;5087271;28;46423;-72
2022/07/24 12:16:41;;;;;;;4.32;4.03;;;31.60;39.80;;;;;;5087396;28;45262;-72
2022/07/24 12:19:16;;;;;;;4.03;3.72;;;31.70;39.70;;;;;;5087621;28;45256;-73
2022/07/24 12:21:43;;;;;;;4.53;4.13;;;31.70;39.60;;;;;;5087541;28;45317;-73
2022/07/24 12:24:10;;;;;;;4.05;3.75;;;31.80;39.60;;;;;;5087234;28;45288;-72
2022/07/24 12:26:49;;;;;;;4.45;4.05;;;31.80;39.40;;;;;;5086592;28;45213;-73
2022/07/24 12:29:16;;;;;;;4.30;3.90;;;31.80;39.40;;;;;;5086656;28;45186;-71
2022/07/24 12:31:43;;;;;;;4.60;4.20;;;31.90;39.30;;;;;;5087061;28;45392;-73
2022/07/24 12:34:10;;;;;;;4.53;4.13;;;32.00;39.20;;;;;;5086931;28;45384;-72
2022/07/24 12:36:39;;;;;;;4.60;4.20;;;32.00;39.20;;;;;;5086918;28;45458;-72
2022/07/24 12:39:06;;;;;;;4.50;4.10;;;32.10;39.20;;;;;;5086969;28;45184;-73
2022/07/24 12:41:43;;;;;;;4.65;4.25;;;32.10;39.10;;;;;;5087164;28;45418;-73
2022/07/24 12:44:09;;;;;;;4.15;3.85;;;32.20;39.00;;;;;;5086757;28;45380;-73
2022/07/24 12:46:38;;;;;;;4.40;4.10;;;32.20;38.90;;;;;;5086856;28;45395;-73
2022/07/24 12:49:05;;;;;;;4.18;3.88;;;32.30;38.80;;;;;;5087137;28;45368;-73
2022/07/24 12:51:49;;;;;;;4.28;3.92;;;32.40;38.90;;;;;;5087183;28;45178;-73